Time;durP1;ratioP1;P1;durP2;ratioP2;P2;SDS_P1;SDS_P2;PMS_P1;PMS_P2;Temp;Humidity;BMP_temperature;BMP_pressure;BME280_temperature;BME280_humidity;BME280_pressure;Samples;Min_cycle;Max_cycle;Signal;HPM_P1;HPM_P2
2022/01/27 00:00:36;;;;;;;27.50;17.23;;;;;;;;;;5026396;28;20225;-70
2022/01/27 00:05:38;;;;;;;28.03;17.40;;;;;;;;;;5027490;28;20207;-71
2022/01/27 00:13:11;;;;;;;23.23;15.47;;;;;;;;;;5027174;28;20261;-70
2022/01/27 00:15:38;;;;;;;25.50;15.77;;;;;;;;;;5026872;28;20854;-70
2022/01/27 00:18:09;;;;;;;26.20;16.30;;;;;;;;;;5037587;28;20557;-70
2022/01/27 00:20:34;;;;;;;23.80;14.73;;;;;;;;;;5036656;28;20206;-70
2022/01/27 00:22:59;;;;;;;25.73;15.77;;;;;;;;;;5033495;28;20210;-70
2022/01/27 00:25:24;;;;;;;28.73;15.63;;;;;;;;;;5033150;28;20180;-71
2022/01/27 00:27:50;;;;;;;26.57;15.17;;;;;;;;;;5015571;28;20178;-70
2022/01/27 00:30:15;;;;;;;25.33;15.53;;;;;;;;;;5033972;28;20217;-70
2022/01/27 00:32:40;;;;;;;26.20;15.07;;;;;;;;;;5032396;28;20235;-70
2022/01/27 00:35:06;;;;;;;25.83;14.70;;;;;;;;;;5011160;28;20189;-70
2022/01/27 00:37:33;;;;;;;28.70;16.63;;;;;;;;;;5029811;28;20219;-71
2022/01/27 00:39:59;;;;;;;23.87;15.27;;;;;;;;;;5023290;28;20205;-70
2022/01/27 00:42:26;;;;;;;27.53;15.73;;;;;;;;;;5034108;28;20198;-70
2022/01/27 00:44:51;;;;;;;26.27;15.50;;;;;;;;;;5032319;28;20206;-70
2022/01/27 00:47:16;;;;;;;27.77;15.10;;;;;;;;;;5034341;28;20233;-70
2022/01/27 00:49:41;;;;;;;27.60;15.20;;;;;;;;;;5035068;28;20206;-70
2022/01/27 00:52:10;;;;;;;25.30;15.70;;;;;;;;;;5036996;28;20186;-70
2022/01/27 00:54:36;;;;;;;26.57;15.20;;;;;;;;;;5018281;28;20182;-71
2022/01/27 00:57:11;;;;;;;28.07;17.13;;;;;;;;;;5015278;28;20182;-70
2022/01/27 01:00:00;;;;;;;25.63;16.40;;;;;;;;;;5025645;28;21043;-71
2022/01/27 01:03:27;;;;;;;27.90;15.90;;;;;;;;;;5032028;28;20209;-69
2022/01/27 01:07:51;;;;;;;29.73;15.33;;;;;;;;;;5033993;28;20212;-69
2022/01/27 01:15:32;;;;;;;25.27;14.73;;;;;;;;;;5033804;28;20193;-69
2022/01/27 01:20:54;;;;;;;24.57;14.00;;;;;;;;;;5035914;28;20217;-69
2022/01/27 01:32:34;;;;;;;25.70;15.17;;;;;;;;;;5032806;28;20205;-69
2022/01/27 01:34:20;;;;;;;24.93;15.37;;;;;;;;;;5016533;28;20195;-69
2022/01/27 01:36:55;;;;;;;28.13;15.83;;;;;;;;;;5029556;28;20180;-69
2022/01/27 01:39:25;;;;;;;24.70;14.97;;;;;;;;;;5032560;28;20185;-68
2022/01/27 01:41:50;;;;;;;25.53;14.27;;;;;;;;;;5027277;28;20293;-69
2022/01/27 01:44:16;;;;;;;32.83;17.80;;;;;;;;;;5030021;28;20313;-69
2022/01/27 01:46:41;;;;;;;30.10;17.00;;;;;;;;;;5024843;28;20236;-70
2022/01/27 01:49:06;;;;;;;29.97;16.93;;;;;;;;;;5031026;28;20624;-68
2022/01/27 01:51:33;;;;;;;31.80;15.93;;;;;;;;;;5033357;28;20758;-69
2022/01/27 01:53:59;;;;;;;28.17;16.27;;;;;;;;;;5032375;28;20174;-69
2022/01/27 01:56:24;;;;;;;29.90;15.93;;;;;;;;;;5031808;28;20580;-69
2022/01/27 01:58:50;;;;;;;27.87;16.67;;;;;;;;;;5031152;28;20182;-69
2022/01/27 02:01:15;;;;;;;29.17;17.00;;;;;;;;;;5031695;28;20214;-69
2022/01/27 02:03:40;;;;;;;25.37;15.67;;;;;;;;;;5031794;28;20204;-69
2022/01/27 02:06:06;;;;;;;25.23;15.80;;;;;;;;;;5031596;28;20186;-69
2022/01/27 02:08:41;;;;;;;30.67;17.37;;;;;;;;;;5026973;28;20813;-69
2022/01/27 02:19:26;;;;;;;26.37;15.43;;;;;;;;;;5029356;28;20193;-69
2022/01/27 02:21:53;;;;;;;27.27;17.13;;;;;;;;;;5031270;28;20202;-69
2022/01/27 02:24:19;;;;;;;31.70;16.23;;;;;;;;;;5032346;28;20174;-69
2022/01/27 02:26:47;;;;;;;26.93;16.43;;;;;;;;;;5031213;28;20198;-69
2022/01/27 02:29:13;;;;;;;28.40;16.33;;;;;;;;;;5031976;28;20175;-69
2022/01/27 02:31:38;;;;;;;30.53;16.23;;;;;;;;;;5030915;28;20294;-69
2022/01/27 02:34:05;;;;;;;30.50;15.73;;;;;;;;;;5030665;28;20541;-69
2022/01/27 02:36:30;;;;;;;30.73;16.90;;;;;;;;;;5029285;28;20595;-69
2022/01/27 02:38:55;;;;;;;28.93;15.53;;;;;;;;;;5031657;28;20174;-69
2022/01/27 02:41:21;;;;;;;29.80;16.37;;;;;;;;;;5030386;28;20198;-69
2022/01/27 02:43:46;;;;;;;29.47;16.40;;;;;;;;;;5031459;28;20194;-69
2022/01/27 02:46:16;;;;;;;28.10;16.37;;;;;;;;;;5027278;28;20197;-69
2022/01/27 02:48:42;;;;;;;32.70;18.90;;;;;;;;;;5025356;28;20293;-69
2022/01/27 02:51:07;;;;;;;31.30;17.50;;;;;;;;;;5029643;28;20289;-68
2022/01/27 02:53:32;;;;;;;28.03;16.77;;;;;;;;;;5030208;28;20651;-69
2022/01/27 02:55:57;;;;;;;31.83;15.60;;;;;;;;;;5027976;28;20185;-69
2022/01/27 02:58:22;;;;;;;28.67;17.40;;;;;;;;;;5029287;28;20190;-69
2022/01/27 03:00:48;;;;;;;28.27;15.80;;;;;;;;;;5031618;28;20202;-69
2022/01/27 03:03:13;;;;;;;30.07;16.00;;;;;;;;;;5022674;28;20288;-69
2022/01/27 03:05:38;;;;;;;31.73;16.67;;;;;;;;;;5031079;28;20551;-69
2022/01/27 03:08:04;;;;;;;28.80;17.03;;;;;;;;;;5028751;28;20262;-69
2022/01/27 03:10:32;;;;;;;28.80;16.47;;;;;;;;;;5029945;28;20198;-70
2022/01/27 03:12:59;;;;;;;27.87;17.27;;;;;;;;;;5028085;28;20185;-69
2022/01/27 03:15:25;;;;;;;25.60;15.73;;;;;;;;;;5030209;28;20512;-69
2022/01/27 03:17:50;;;;;;;27.67;17.57;;;;;;;;;;5029538;28;20185;-68
2022/01/27 03:20:15;;;;;;;36.30;17.67;;;;;;;;;;5028827;28;20750;-69
2022/01/27 03:22:41;;;;;;;27.50;16.93;;;;;;;;;;5029031;28;20650;-69
2022/01/27 03:25:06;;;;;;;29.93;18.07;;;;;;;;;;5029518;28;20171;-69
2022/01/27 03:27:33;;;;;;;33.20;18.77;;;;;;;;;;5026905;28;20183;-69
2022/01/27 03:29:58;;;;;;;28.77;16.97;;;;;;;;;;5028414;28;20220;-69
2022/01/27 03:32:26;;;;;;;24.93;15.83;;;;;;;;;;5029910;28;20265;-69
2022/01/27 03:34:51;;;;;;;27.93;16.17;;;;;;;;;;5028562;28;20669;-69
2022/01/27 03:37:16;;;;;;;26.33;15.70;;;;;;;;;;5030745;28;20261;-69
2022/01/27 03:39:42;;;;;;;30.57;17.80;;;;;;;;;;5029461;28;20576;-69
2022/01/27 03:42:08;;;;;;;29.83;16.77;;;;;;;;;;5026804;28;20297;-69
2022/01/27 03:44:33;;;;;;;28.53;16.73;;;;;;;;;;5027803;28;20262;-68
2022/01/27 03:46:59;;;;;;;28.07;18.03;;;;;;;;;;5030202;28;20627;-69
2022/01/27 03:49:24;;;;;;;30.77;17.80;;;;;;;;;;5028783;28;20648;-69
2022/01/27 03:51:49;;;;;;;39.67;18.77;;;;;;;;;;5030351;28;20220;-68
2022/01/27 03:54:15;;;;;;;31.87;16.97;;;;;;;;;;5028718;28;20174;-69
2022/01/27 03:56:40;;;;;;;34.43;15.93;;;;;;;;;;5029640;28;20517;-69
2022/01/27 03:59:05;;;;;;;32.90;17.53;;;;;;;;;;5029360;28;20645;-69
2022/01/27 04:01:31;;;;;;;30.70;17.37;;;;;;;;;;5029740;28;20252;-68
2022/01/27 04:03:58;;;;;;;29.23;17.07;;;;;;;;;;5011697;28;20614;-69
2022/01/27 04:06:32;;;;;;;30.40;16.27;;;;;;;;;;5030257;28;20173;-69
2022/01/27 04:08:58;;;;;;;31.40;17.43;;;;;;;;;;5029096;28;20193;-69
2022/01/27 04:11:23;;;;;;;29.37;18.10;;;;;;;;;;5030110;28;20194;-69
2022/01/27 04:13:48;;;;;;;28.67;15.77;;;;;;;;;;5026937;28;20189;-69
2022/01/27 04:16:13;;;;;;;29.43;16.23;;;;;;;;;;5031234;28;20197;-69
2022/01/27 04:18:39;;;;;;;30.40;16.67;;;;;;;;;;5027134;28;20178;-69
2022/01/27 04:21:04;;;;;;;31.37;17.47;;;;;;;;;;5011684;28;20194;-69
2022/01/27 04:23:29;;;;;;;37.13;17.80;;;;;;;;;;5028594;28;20190;-68
2022/01/27 04:25:54;;;;;;;27.40;16.17;;;;;;;;;;5030941;28;20557;-69
2022/01/27 04:28:27;;;;;;;27.50;14.77;;;;;;;;;;5030856;28;20544;-69
2022/01/27 04:30:54;;;;;;;26.60;15.43;;;;;;;;;;5025875;28;20217;-69
2022/01/27 04:33:24;;;;;;;30.47;15.80;;;;;;;;;;5028784;28;20185;-69
2022/01/27 04:35:50;;;;;;;27.40;14.67;;;;;;;;;;5011369;28;20202;-69
2022/01/27 04:38:22;;;;;;;32.30;16.83;;;;;;;;;;5027977;28;20218;-69
2022/01/27 04:48:23;;;;;;;29.73;16.67;;;;;;;;;;5028642;28;20183;-70
2022/01/27 04:50:50;;;;;;;25.17;14.00;;;;;;;;;;5030502;28;20225;-70
2022/01/27 04:53:31;;;;;;;25.10;14.57;;;;;;;;;;5028642;28;20182;-69
2022/01/27 04:55:58;;;;;;;30.60;15.10;;;;;;;;;;5028523;28;20235;-70
2022/01/27 04:58:30;;;;;;;24.90;14.87;;;;;;;;;;5029101;28;20193;-69
2022/01/27 05:00:59;;;;;;;27.43;13.67;;;;;;;;;;5029296;28;21041;-69
2022/01/27 05:03:35;;;;;;;29.27;14.27;;;;;;;;;;5030183;28;20210;-69
2022/01/27 05:06:00;;;;;;;27.40;14.67;;;;;;;;;;5015263;28;20201;-70
2022/01/27 05:08:25;;;;;;;28.37;14.33;;;;;;;;;;5030892;28;20264;-70
2022/01/27 05:13:30;;;;;;;28.07;12.37;;;;;;;;;;5031247;28;20274;-70
2022/01/27 05:15:55;;;;;;;26.17;13.63;;;;;;;;;;5033610;28;20185;-70
2022/01/27 05:18:21;;;;;;;27.77;13.33;;;;;;;;;;5032994;28;20183;-69
2022/01/27 05:20:46;;;;;;;29.73;14.30;;;;;;;;;;5015191;28;20206;-70
2022/01/27 05:23:11;;;;;;;24.93;13.13;;;;;;;;;;5030967;28;20214;-69
2022/01/27 05:25:37;;;;;;;28.27;13.23;;;;;;;;;;5029325;28;20230;-69
2022/01/27 05:28:02;;;;;;;28.07;13.90;;;;;;;;;;5028701;28;20185;-70
2022/01/27 05:30:27;;;;;;;26.07;12.90;;;;;;;;;;5015016;28;20659;-69
2022/01/27 05:32:52;;;;;;;27.10;13.17;;;;;;;;;;5030653;28;20178;-70
2022/01/27 05:35:17;;;;;;;26.13;12.40;;;;;;;;;;5030607;28;20174;-70
2022/01/27 05:37:43;;;;;;;24.73;13.53;;;;;;;;;;5032437;28;20167;-70
2022/01/27 05:40:08;;;;;;;33.17;13.47;;;;;;;;;;5032474;28;20229;-70
2022/01/27 05:42:33;;;;;;;23.17;11.27;;;;;;;;;;5032876;28;20248;-69
2022/01/27 05:44:58;;;;;;;24.20;13.30;;;;;;;;;;5033232;28;20173;-70
2022/01/27 05:47:24;;;;;;;23.27;13.90;;;;;;;;;;5005133;28;20178;-69
2022/01/27 05:49:49;;;;;;;22.60;11.57;;;;;;;;;;5031024;28;20205;-69
2022/01/27 05:52:14;;;;;;;21.83;12.03;;;;;;;;;;5032261;28;20239;-70
2022/01/27 05:54:39;;;;;;;34.80;13.97;;;;;;;;;;5031817;28;20193;-70
2022/01/27 05:57:04;;;;;;;26.27;13.10;;;;;;;;;;5015158;28;20174;-70
2022/01/27 05:59:30;;;;;;;25.50;11.57;;;;;;;;;;5014585;28;20185;-70
2022/01/27 06:01:55;;;;;;;27.13;11.93;;;;;;;;;;5013742;28;20186;-70
2022/01/27 06:04:20;;;;;;;22.87;11.03;;;;;;;;;;5014069;28;20680;-70
2022/01/27 06:06:45;;;;;;;22.67;12.40;;;;;;;;;;5031588;28;20170;-70
2022/01/27 06:09:11;;;;;;;26.43;11.13;;;;;;;;;;5032459;28;20633;-70
2022/01/27 06:11:36;;;;;;;35.10;11.97;;;;;;;;;;5031111;28;20198;-68
2022/01/27 06:14:01;;;;;;;23.70;12.43;;;;;;;;;;5032279;28;20193;-68
2022/01/27 06:16:26;;;;;;;25.10;12.47;;;;;;;;;;5032437;28;20183;-69
2022/01/27 06:18:51;;;;;;;24.97;11.63;;;;;;;;;;5014070;28;20615;-68
2022/01/27 06:21:17;;;;;;;26.07;11.83;;;;;;;;;;5030232;28;20361;-69
2022/01/27 06:23:43;;;;;;;27.57;11.13;;;;;;;;;;5014791;28;20221;-69
2022/01/27 06:26:08;;;;;;;30.83;12.77;;;;;;;;;;5031844;28;20285;-69
2022/01/27 06:28:33;;;;;;;23.40;11.20;;;;;;;;;;5031999;28;20189;-69
2022/01/27 06:30:58;;;;;;;26.57;10.30;;;;;;;;;;5030551;28;20718;-69
2022/01/27 06:33:24;;;;;;;23.90;10.37;;;;;;;;;;5032546;28;20175;-69
2022/01/27 06:35:49;;;;;;;24.13;10.20;;;;;;;;;;5029422;28;20228;-68
2022/01/27 06:38:14;;;;;;;18.87;10.10;;;;;;;;;;5032171;28;20171;-69
2022/01/27 06:40:39;;;;;;;22.90;9.70;;;;;;;;;;5032507;28;20517;-69
2022/01/27 06:43:05;;;;;;;21.87;10.20;;;;;;;;;;5035525;28;20198;-69
2022/01/27 06:45:30;;;;;;;21.27;10.83;;;;;;;;;;5030013;28;20182;-69
2022/01/27 06:47:55;;;;;;;24.30;10.90;;;;;;;;;;5031978;28;20470;-69
2022/01/27 06:50:20;;;;;;;29.60;10.67;;;;;;;;;;5030216;28;20190;-69
2022/01/27 06:52:45;;;;;;;20.13;9.50;;;;;;;;;;5032259;28;20181;-69
2022/01/27 06:55:12;;;;;;;26.63;9.73;;;;;;;;;;5013968;28;20256;-69
2022/01/27 06:57:37;;;;;;;23.27;10.60;;;;;;;;;;5032414;28;20186;-68
2022/01/27 07:00:03;;;;;;;21.73;10.87;;;;;;;;;;5040843;22;20321;-70
2022/01/27 07:02:29;;;;;;;22.90;10.07;;;;;;;;;;5030414;28;20296;-71
2022/01/27 07:04:54;;;;;;;23.57;10.63;;;;;;;;;;5028967;28;20329;-70
2022/01/27 07:07:19;;;;;;;27.07;9.83;;;;;;;;;;5026045;28;20623;-70
2022/01/27 07:09:44;;;;;;;22.83;10.43;;;;;;;;;;5029193;28;20171;-68
2022/01/27 07:12:10;;;;;;;20.47;10.23;;;;;;;;;;5028539;28;20256;-69
2022/01/27 07:14:35;;;;;;;23.43;10.80;;;;;;;;;;5030675;28;20182;-71
2022/01/27 07:17:00;;;;;;;27.80;10.23;;;;;;;;;;5029933;28;20206;-68
2022/01/27 07:19:26;;;;;;;22.70;10.40;;;;;;;;;;5012217;28;20197;-68
2022/01/27 07:21:51;;;;;;;27.50;12.00;;;;;;;;;;5010655;28;20249;-69
2022/01/27 07:24:16;;;;;;;20.47;11.67;;;;;;;;;;5031824;28;20171;-68
2022/01/27 07:26:41;;;;;;;30.70;10.97;;;;;;;;;;5036476;28;20174;-68
2022/01/27 07:29:07;;;;;;;28.30;11.73;;;;;;;;;;5031976;28;20305;-68
2022/01/27 07:31:32;;;;;;;30.03;11.43;;;;;;;;;;5030617;28;20190;-69
2022/01/27 07:33:58;;;;;;;28.30;11.93;;;;;;;;;;5029031;28;20674;-69
2022/01/27 07:36:24;;;;;;;25.97;13.40;;;;;;;;;;5030157;28;20265;-69
2022/01/27 07:38:49;;;;;;;26.30;11.13;;;;;;;;;;5025270;28;20269;-69
2022/01/27 07:41:15;;;;;;;25.20;12.60;;;;;;;;;;5026976;28;20209;-69
2022/01/27 07:43:40;;;;;;;27.97;11.90;;;;;;;;;;5027448;28;20202;-69
2022/01/27 07:46:06;;;;;;;25.97;11.13;;;;;;;;;;5029419;28;20186;-71
2022/01/27 07:48:31;;;;;;;31.60;12.20;;;;;;;;;;5022450;28;20198;-71
2022/01/27 07:50:57;;;;;;;25.83;11.73;;;;;;;;;;5029644;28;20260;-71
2022/01/27 07:53:22;;;;;;;22.53;11.30;;;;;;;;;;5028676;28;20182;-69
2022/01/27 07:55:47;;;;;;;26.20;12.87;;;;;;;;;;5029294;28;20222;-71
2022/01/27 07:58:13;;;;;;;27.77;12.80;;;;;;;;;;5023915;28;20274;-70
2022/01/27 08:00:39;;;;;;;23.00;12.23;;;;;;;;;;5028289;28;20822;-71
2022/01/27 08:03:04;;;;;;;25.53;13.10;;;;;;;;;;5023548;28;20205;-70
2022/01/27 08:05:29;;;;;;;31.23;11.53;;;;;;;;;;5028432;28;20179;-69
2022/01/27 08:07:54;;;;;;;26.33;11.63;;;;;;;;;;5029531;28;20170;-71
2022/01/27 08:10:19;;;;;;;27.43;11.47;;;;;;;;;;5025052;28;20213;-69
2022/01/27 08:12:45;;;;;;;26.10;11.87;;;;;;;;;;5027469;28;20186;-71
2022/01/27 08:15:18;;;;;;;29.27;11.20;;;;;;;;;;5008075;28;20246;-68
2022/01/27 08:17:44;;;;;;;22.97;10.77;;;;;;;;;;5009099;28;20213;-71
2022/01/27 08:20:09;;;;;;;27.60;11.43;;;;;;;;;;5027441;28;20198;-69
2022/01/27 08:22:37;;;;;;;25.60;11.00;;;;;;;;;;5030439;28;20641;-69
2022/01/27 08:25:03;;;;;;;28.47;11.83;;;;;;;;;;5027088;28;20170;-68
2022/01/27 08:27:30;;;;;;;23.57;10.83;;;;;;;;;;5017145;28;20186;-69
2022/01/27 08:30:01;;;;;;;28.90;11.03;;;;;;;;;;5015490;28;20182;-71
2022/01/27 08:35:11;;;;;;;23.03;10.67;;;;;;;;;;5022173;28;20240;-71
2022/01/27 08:37:36;;;;;;;21.83;10.70;;;;;;;;;;5013417;28;20186;-71
2022/01/27 08:40:01;;;;;;;22.40;10.97;;;;;;;;;;5028945;28;20205;-69
2022/01/27 08:42:28;;;;;;;27.30;11.80;;;;;;;;;;5017889;28;20198;-71
2022/01/27 08:44:53;;;;;;;20.63;11.70;;;;;;;;;;5029563;28;20175;-69
2022/01/27 08:47:18;;;;;;;26.10;11.33;;;;;;;;;;5028033;28;20568;-72
2022/01/27 08:49:46;;;;;;;20.63;10.50;;;;;;;;;;5013352;28;20278;-71
2022/01/27 08:52:11;;;;;;;18.77;10.77;;;;;;;;;;5029398;28;20209;-71
2022/01/27 08:54:36;;;;;;;20.30;9.97;;;;;;;;;;5030856;28;20217;-69
2022/01/27 08:57:02;;;;;;;25.47;12.23;;;;;;;;;;5021641;28;20265;-68
2022/01/27 08:59:27;;;;;;;22.87;12.03;;;;;;;;;;5029236;28;20521;-69
2022/01/27 09:01:52;;;;;;;19.20;11.20;;;;;;;;;;5029155;28;20214;-69
2022/01/27 09:04:17;;;;;;;22.10;11.47;;;;;;;;;;5027883;28;20273;-71
2022/01/27 09:06:42;;;;;;;21.17;11.27;;;;;;;;;;5033312;28;20170;-69
2022/01/27 09:09:08;;;;;;;26.90;11.40;;;;;;;;;;5028655;28;20260;-71
2022/01/27 09:11:33;;;;;;;24.97;11.63;;;;;;;;;;5029701;28;20690;-71
2022/01/27 09:14:03;;;;;;;21.07;10.27;;;;;;;;;;5031378;28;20630;-71
2022/01/27 09:16:29;;;;;;;17.80;11.40;;;;;;;;;;5024638;28;20174;-71
2022/01/27 09:18:56;;;;;;;23.03;12.47;;;;;;;;;;5028742;28;20193;-72
2022/01/27 09:21:25;;;;;;;22.40;10.93;;;;;;;;;;5022829;28;20297;-71
2022/01/27 09:23:51;;;;;;;20.43;12.10;;;;;;;;;;5007670;28;20243;-72
2022/01/27 09:29:19;;;;;;;21.93;11.23;;;;;;;;;;4982533;28;20752;-68
2022/01/27 09:31:45;;;;;;;21.60;11.13;;;;;;;;;;5002448;28;20249;-71
2022/01/27 09:34:10;;;;;;;23.67;12.70;;;;;;;;;;5030286;28;20578;-72
2022/01/27 09:36:35;;;;;;;19.17;11.00;;;;;;;;;;5024827;28;20361;-71
2022/01/27 09:39:01;;;;;;;20.33;11.97;;;;;;;;;;5030049;28;20609;-71
2022/01/27 09:41:27;;;;;;;24.47;11.77;;;;;;;;;;5027486;28;21198;-72
2022/01/27 09:43:53;;;;;;;22.03;11.27;;;;;;;;;;5025196;28;20698;-71
2022/01/27 09:46:20;;;;;;;20.50;11.33;;;;;;;;;;5031470;28;20182;-71
2022/01/27 09:48:48;;;;;;;24.93;12.00;;;;;;;;;;5023271;28;20627;-69
2022/01/27 09:53:44;;;;;;;19.87;11.73;;;;;;;;;;5031490;28;20673;-69
2022/01/27 09:56:10;;;;;;;22.80;12.03;;;;;;;;;;5029372;28;20178;-70
2022/01/27 09:58:35;;;;;;;25.10;12.10;;;;;;;;;;5028976;28;20256;-71
2022/01/27 10:01:00;;;;;;;25.33;12.37;;;;;;;;;;5029710;28;20280;-69
2022/01/27 10:03:28;;;;;;;25.37;12.87;;;;;;;;;;5031458;28;20529;-69
2022/01/27 10:06:07;;;;;;;25.73;12.20;;;;;;;;;;5010777;28;20228;-69
2022/01/27 10:08:34;;;;;;;25.53;13.47;;;;;;;;;;5029828;28;20182;-72
2022/01/27 10:11:11;;;;;;;25.37;12.20;;;;;;;;;;5028289;28;20201;-70
2022/01/27 10:13:40;;;;;;;25.17;11.60;;;;;;;;;;5022357;28;20670;-69
2022/01/27 10:16:07;;;;;;;27.07;11.87;;;;;;;;;;5012751;28;20338;-68
2022/01/27 10:18:35;;;;;;;32.30;12.10;;;;;;;;;;5023687;28;20186;-68
2022/01/27 10:21:04;;;;;;;27.63;10.90;;;;;;;;;;5030087;28;20227;-71
2022/01/27 10:23:33;;;;;;;24.67;11.47;;;;;;;;;;5032305;28;20202;-67
2022/01/27 10:26:07;;;;;;;26.23;12.93;;;;;;;;;;5030932;28;20657;-69
2022/01/27 10:31:25;;;;;;;23.33;10.97;;;;;;;;;;5026921;28;20606;-69
2022/01/27 10:34:17;;;;;;;23.83;11.07;;;;;;;;;;5027088;28;20660;-69
2022/01/27 10:36:44;;;;;;;19.67;10.33;;;;;;;;;;5025188;28;20199;-69
2022/01/27 10:39:10;;;;;;;22.57;11.37;;;;;;;;;;5026990;28;20190;-69
2022/01/27 10:41:37;;;;;;;20.97;10.30;;;;;;;;;;5011545;28;20327;-67
2022/01/27 10:44:17;;;;;;;27.77;11.30;;;;;;;;;;5026660;28;20279;-69
2022/01/27 10:47:03;;;;;;;21.20;10.97;;;;;;;;;;5020084;28;20869;-68
2022/01/27 10:49:28;;;;;;;19.87;9.67;;;;;;;;;;5024792;28;20178;-68
2022/01/27 10:51:55;;;;;;;23.83;10.27;;;;;;;;;;5012666;28;20213;-69
2022/01/27 10:54:35;;;;;;;19.07;9.60;;;;;;;;;;5011425;28;20192;-69
2022/01/27 10:57:05;;;;;;;19.30;9.57;;;;;;;;;;5011217;28;20175;-69
2022/01/27 10:59:32;;;;;;;18.40;10.10;;;;;;;;;;5030013;28;20175;-69
2022/01/27 11:01:58;;;;;;;18.90;9.80;;;;;;;;;;5028556;28;20214;-68
2022/01/27 11:04:31;;;;;;;16.43;9.43;;;;;;;;;;5031352;28;20170;-69
2022/01/27 11:06:59;;;;;;;19.30;9.30;;;;;;;;;;5025713;28;20206;-69
2022/01/27 11:09:25;;;;;;;18.73;9.20;;;;;;;;;;5028147;28;20704;-69
2022/01/27 11:11:52;;;;;;;19.47;10.73;;;;;;;;;;5030577;28;20651;-69
2022/01/27 11:14:19;;;;;;;17.27;8.70;;;;;;;;;;5029048;28;20249;-69
2022/01/27 11:16:45;;;;;;;20.33;9.07;;;;;;;;;;5028713;28;20178;-68
2022/01/27 11:21:45;;;;;;;15.23;8.83;;;;;;;;;;5023868;28;20216;-72
2022/01/27 11:24:24;;;;;;;15.67;8.70;;;;;;;;;;5011648;28;20206;-69
2022/01/27 11:26:52;;;;;;;19.97;8.47;;;;;;;;;;5029110;28;20201;-68
2022/01/27 11:29:17;;;;;;;18.77;9.30;;;;;;;;;;5027864;28;20186;-68
2022/01/27 11:31:48;;;;;;;15.50;8.43;;;;;;;;;;5029337;28;20292;-69
2022/01/27 11:34:13;;;;;;;18.43;9.43;;;;;;;;;;5027278;28;20194;-69
2022/01/27 11:36:58;;;;;;;14.77;8.70;;;;;;;;;;5022729;28;20232;-69
2022/01/27 11:39:43;;;;;;;29.70;7.80;;;;;;;;;;5025226;28;20272;-69
2022/01/27 11:42:08;;;;;;;18.77;8.33;;;;;;;;;;5020483;28;20582;-69
2022/01/27 11:44:36;;;;;;;13.90;7.40;;;;;;;;;;5030686;28;20265;-69
2022/01/27 11:47:07;;;;;;;17.83;7.60;;;;;;;;;;5027848;28;20559;-69
2022/01/27 11:49:45;;;;;;;13.67;6.13;;;;;;;;;;5021951;28;20186;-68
2022/01/27 11:52:24;;;;;;;19.33;7.27;;;;;;;;;;5008937;28;20175;-70
2022/01/27 11:54:49;;;;;;;18.50;6.83;;;;;;;;;;5025523;28;20185;-69
2022/01/27 11:57:33;;;;;;;14.57;5.90;;;;;;;;;;5026912;28;20177;-69
2022/01/27 12:00:08;;;;;;;18.33;6.63;;;;;;;;;;5032294;28;20303;-69
2022/01/27 12:02:53;;;;;;;11.23;5.53;;;;;;;;;;5027723;28;20232;-69
2022/01/27 12:05:19;;;;;;;17.00;6.47;;;;;;;;;;5028419;28;20263;-69
2022/01/27 12:08:03;;;;;;;15.63;5.23;;;;;;;;;;5024468;28;20260;-69
2022/01/27 12:10:38;;;;;;;12.73;5.00;;;;;;;;;;5007415;28;20201;-68
2022/01/27 12:13:23;;;;;;;13.87;5.47;;;;;;;;;;5003693;28;20182;-69
2022/01/27 12:16:07;;;;;;;9.70;4.40;;;;;;;;;;5027676;28;20269;-68
2022/01/27 12:18:33;;;;;;;17.40;5.50;;;;;;;;;;5024863;28;20536;-69
2022/01/27 12:20:58;;;;;;;9.57;5.43;;;;;;;;;;5030879;28;20277;-69
2022/01/27 12:23:23;;;;;;;10.90;4.60;;;;;;;;;;5027082;28;20233;-68
2022/01/27 12:25:50;;;;;;;13.97;5.03;;;;;;;;;;5024762;28;20182;-68
2022/01/27 12:28:16;;;;;;;14.40;5.10;;;;;;;;;;5024788;28;20182;-67
2022/01/27 12:30:53;;;;;;;12.27;4.93;;;;;;;;;;5012299;28;20253;-68
2022/01/27 12:33:18;;;;;;;12.30;4.23;;;;;;;;;;5027487;28;20557;-68
2022/01/27 12:35:51;;;;;;;8.43;4.33;;;;;;;;;;5024794;28;20174;-68
2022/01/27 12:38:16;;;;;;;13.87;5.00;;;;;;;;;;5025760;28;20616;-68
2022/01/27 12:40:41;;;;;;;17.97;5.80;;;;;;;;;;5026675;28;20252;-68
2022/01/27 12:43:13;;;;;;;9.90;5.17;;;;;;;;;;5024523;28;20232;-68
2022/01/27 12:45:41;;;;;;;11.40;4.63;;;;;;;;;;5007755;28;20277;-69
2022/01/27 12:48:10;;;;;;;13.83;5.07;;;;;;;;;;5021502;28;20181;-69
2022/01/27 12:50:37;;;;;;;9.93;3.87;;;;;;;;;;5022283;28;20653;-67
2022/01/27 12:53:09;;;;;;;7.67;4.27;;;;;;;;;;5029604;28;20182;-69
2022/01/27 12:55:38;;;;;;;14.87;5.07;;;;;;;;;;5024188;28;20201;-68
2022/01/27 12:58:04;;;;;;;8.00;3.77;;;;;;;;;;5024666;28;20285;-69
2022/01/27 13:00:36;;;;;;;11.77;4.80;;;;;;;;;;5036568;22;21729;-71
2022/01/27 13:03:02;;;;;;;11.70;4.23;;;;;;;;;;5028037;28;20721;-71
2022/01/27 13:05:38;;;;;;;9.67;4.60;;;;;;;;;;5024570;28;20305;-71
2022/01/27 13:08:11;;;;;;;11.07;4.90;;;;;;;;;;5026990;28;20182;-71
2022/01/27 13:10:37;;;;;;;13.97;4.80;;;;;;;;;;5019448;28;20249;-71
2022/01/27 13:13:14;;;;;;;20.27;6.13;;;;;;;;;;5023974;28;20655;-71
2022/01/27 13:15:40;;;;;;;12.40;4.47;;;;;;;;;;5010954;28;20186;-71
2022/01/27 13:18:15;;;;;;;12.00;4.70;;;;;;;;;;5027532;28;20178;-71
2022/01/27 13:20:47;;;;;;;8.00;3.80;;;;;;;;;;5027371;28;20707;-71
2022/01/27 13:23:30;;;;;;;6.40;3.53;;;;;;;;;;5009965;28;20198;-71
2022/01/27 13:25:59;;;;;;;10.67;3.93;;;;;;;;;;5029690;28;20551;-71
2022/01/27 13:28:26;;;;;;;10.60;3.60;;;;;;;;;;5030435;28;20671;-71
2022/01/27 13:30:52;;;;;;;10.60;3.73;;;;;;;;;;5030082;28;20198;-71
2022/01/27 13:33:19;;;;;;;8.97;4.00;;;;;;;;;;5032119;28;20239;-71
2022/01/27 13:35:44;;;;;;;11.57;3.53;;;;;;;;;;5028712;28;20182;-71
2022/01/27 13:38:29;;;;;;;13.57;4.40;;;;;;;;;;5023744;28;20681;-71
2022/01/27 13:41:16;;;;;;;8.57;3.50;;;;;;;;;;5017649;28;20194;-71
2022/01/27 13:43:42;;;;;;;11.60;3.57;;;;;;;;;;5018300;28;20244;-71
2022/01/27 13:46:08;;;;;;;14.60;4.30;;;;;;;;;;5019891;28;20181;-71
2022/01/27 13:48:41;;;;;;;6.00;3.40;;;;;;;;;;5022160;28;20210;-71
2022/01/27 13:51:06;;;;;;;7.77;3.17;;;;;;;;;;5022045;28;20210;-71
2022/01/27 13:53:31;;;;;;;8.53;3.33;;;;;;;;;;5020723;28;20186;-71
2022/01/27 13:55:57;;;;;;;11.00;3.30;;;;;;;;;;5021420;28;20675;-71
2022/01/27 13:58:25;;;;;;;12.07;3.53;;;;;;;;;;5020687;28;20605;-71
2022/01/27 14:00:52;;;;;;;9.27;3.53;;;;;;;;;;5009639;28;20234;-71
2022/01/27 14:03:18;;;;;;;11.27;3.97;;;;;;;;;;5011795;28;20190;-71
2022/01/27 14:05:57;;;;;;;10.67;5.67;;;;;;;;;;5022643;28;20213;-71
2022/01/27 14:08:32;;;;;;;11.40;3.33;;;;;;;;;;5019587;28;20220;-71
2022/01/27 14:10:58;;;;;;;7.87;3.07;;;;;;;;;;5021358;28;20629;-71
2022/01/27 14:13:24;;;;;;;12.60;4.47;;;;;;;;;;5019892;28;20178;-71
2022/01/27 14:15:54;;;;;;;8.33;3.40;;;;;;;;;;5019054;28;20696;-71
2022/01/27 14:18:24;;;;;;;7.77;4.17;;;;;;;;;;5021388;28;20210;-71
2022/01/27 14:20:49;;;;;;;8.80;2.83;;;;;;;;;;5024904;28;20218;-71
2022/01/27 14:23:19;;;;;;;9.97;2.93;;;;;;;;;;5020783;28;20194;-71
2022/01/27 14:25:51;;;;;;;10.23;3.10;;;;;;;;;;5018877;28;20183;-71
2022/01/27 14:28:16;;;;;;;10.97;3.80;;;;;;;;;;5009474;28;20186;-71
2022/01/27 14:30:42;;;;;;;11.33;5.07;;;;;;;;;;5022625;28;20841;-72
2022/01/27 14:33:07;;;;;;;8.67;2.70;;;;;;;;;;5033967;28;20174;-71
2022/01/27 14:35:32;;;;;;;10.63;2.40;;;;;;;;;;5018395;28;20800;-71
2022/01/27 14:37:58;;;;;;;10.67;2.90;;;;;;;;;;5018823;28;20194;-71
2022/01/27 14:40:24;;;;;;;10.10;4.33;;;;;;;;;;5006887;28;20225;-71
2022/01/27 14:42:49;;;;;;;12.07;2.50;;;;;;;;;;5019794;28;20602;-71
2022/01/27 14:45:17;;;;;;;4.43;2.33;;;;;;;;;;5025856;28;20236;-71
2022/01/27 14:47:43;;;;;;;13.77;2.43;;;;;;;;;;5025460;28;20186;-71
2022/01/27 14:50:09;;;;;;;8.47;1.63;;;;;;;;;;5019299;28;20187;-71
2022/01/27 14:52:36;;;;;;;5.20;1.73;;;;;;;;;;5026443;28;20441;-71
2022/01/27 14:55:02;;;;;;;8.37;1.83;;;;;;;;;;5021125;28;20182;-71
2022/01/27 14:57:27;;;;;;;7.10;1.80;;;;;;;;;;5022868;28;20193;-71
2022/01/27 14:59:52;;;;;;;11.57;1.80;;;;;;;;;;5018784;28;20201;-71
2022/01/27 15:02:17;;;;;;;11.03;1.87;;;;;;;;;;5018857;28;22242;-71
2022/01/27 15:04:43;;;;;;;6.80;2.13;;;;;;;;;;5019534;28;20179;-71
2022/01/27 15:07:08;;;;;;;7.53;2.47;;;;;;;;;;5019781;28;20190;-71
2022/01/27 15:09:33;;;;;;;13.70;2.70;;;;;;;;;;5019945;28;20179;-71
2022/01/27 15:11:58;;;;;;;7.47;2.13;;;;;;;;;;5019643;28;20206;-71
2022/01/27 15:19:52;;;;;;;7.53;1.60;;;;;;;;;;5027882;28;20235;-71
2022/01/27 15:22:17;;;;;;;7.10;2.20;;;;;;;;;;5019387;28;20201;-71
2022/01/27 15:24:43;;;;;;;9.40;2.57;;;;;;;;;;5017849;28;20556;-71
2022/01/27 15:27:08;;;;;;;8.70;1.90;;;;;;;;;;5022268;28;20292;-71
2022/01/27 15:29:35;;;;;;;3.73;1.83;;;;;;;;;;5026845;28;20583;-71